createdAt,value
2018-07-22T00:00:52.503Z,84.00
2018-07-22T00:03:21.657Z,84.00
2018-07-22T00:05:50.979Z,83.60
2018-07-22T00:08:20.341Z,83.80
2018-07-22T00:10:49.563Z,83.40
2018-07-22T00:13:18.826Z,83.20
2018-07-22T00:15:48.089Z,82.60
2018-07-22T00:18:17.228Z,82.40
2018-07-22T00:23:15.175Z,81.80
2018-07-22T00:25:44.195Z,81.30
2018-07-22T00:28:13.591Z,81.50
2018-07-22T00:30:42.931Z,81.50
2018-07-22T00:33:12.165Z,81.00
2018-07-22T00:35:41.338Z,81.50
2018-07-22T00:38:10.439Z,81.50
2018-07-22T00:40:39.489Z,81.70
2018-07-22T00:43:08.834Z,81.80
2018-07-22T00:45:38.198Z,81.80
2018-07-22T00:48:07.218Z,81.30
2018-07-22T00:50:36.254Z,81.70
2018-07-22T00:53:05.719Z,81.10
2018-07-22T00:55:34.887Z,81.20
2018-07-22T00:58:04.254Z,80.60
2018-07-22T01:00:33.198Z,80.40
2018-07-22T01:03:02.250Z,80.10
2018-07-22T01:05:31.214Z,80.10
2018-07-22T01:08:00.231Z,79.40
2018-07-22T01:10:29.481Z,78.80
2018-07-22T01:12:58.549Z,78.50
2018-07-22T01:15:27.604Z,78.30
2018-07-22T01:17:56.827Z,77.80
2018-07-22T01:20:25.879Z,77.50
2018-07-22T01:22:54.931Z,77.70
2018-07-22T01:25:24.507Z,77.40
2018-07-22T01:27:53.556Z,77.20
2018-07-22T01:30:22.589Z,77.00
2018-07-22T01:32:52.480Z,76.90
2018-07-22T01:35:21.574Z,77.10
2018-07-22T01:37:50.420Z,76.90
2018-07-22T01:40:19.622Z,77.00
2018-07-22T01:42:48.694Z,76.60
2018-07-22T01:45:17.952Z,76.40
2018-07-22T01:47:47.012Z,76.10
2018-07-22T01:50:16.434Z,75.90
2018-07-22T01:52:45.399Z,76.30
2018-07-22T01:55:14.630Z,76.30
2018-07-22T01:57:43.583Z,75.90
2018-07-22T02:00:12.718Z,76.00
2018-07-22T02:02:41.738Z,75.60
2018-07-22T02:05:11.021Z,75.60
2018-07-22T02:07:40.176Z,75.50
2018-07-22T02:10:09.164Z,75.90
2018-07-22T02:12:38.214Z,76.10
2018-07-22T02:15:07.514Z,76.10
2018-07-22T02:17:36.594Z,76.00
2018-07-22T02:20:05.881Z,75.90
2018-07-22T02:22:34.839Z,76.10
2018-07-22T02:25:04.030Z,75.80
2018-07-22T02:27:33.286Z,76.00
2018-07-22T02:30:02.492Z,76.10
2018-07-22T02:32:31.565Z,76.30
2018-07-22T02:35:00.674Z,76.10
2018-07-22T02:37:29.700Z,76.20
2018-07-22T02:39:58.688Z,76.30
2018-07-22T02:42:30.740Z,76.40
2018-07-22T02:44:59.997Z,76.40
2018-07-22T02:47:29.052Z,76.50
2018-07-22T02:49:57.971Z,76.60
2018-07-22T02:52:26.989Z,76.40
2018-07-22T02:54:55.992Z,76.90
2018-07-22T02:57:24.964Z,76.90
2018-07-22T02:59:54.036Z,77.20
2018-07-22T03:02:22.953Z,77.10
2018-07-22T03:04:51.932Z,77.50
2018-07-22T03:07:21.169Z,77.40
2018-07-22T03:09:50.094Z,78.10
2018-07-22T03:12:20.307Z,77.30
2018-07-22T03:14:49.463Z,77.60
2018-07-22T03:17:18.482Z,77.60
2018-07-22T03:19:47.456Z,77.50
2018-07-22T03:22:16.324Z,77.90
2018-07-22T03:24:45.377Z,78.10
2018-07-22T03:27:14.492Z,78.30
2018-07-22T03:29:43.376Z,78.40
2018-07-22T03:32:12.354Z,78.20
2018-07-22T03:34:41.626Z,78.50
2018-07-22T03:37:10.565Z,78.60
2018-07-22T03:39:39.741Z,78.50
2018-07-22T03:42:08.790Z,78.40
2018-07-22T03:44:38.818Z,78.50
2018-07-22T03:47:07.713Z,78.30
2018-07-22T03:49:36.833Z,78.60
2018-07-22T03:52:05.813Z,78.50
2018-07-22T03:54:34.844Z,78.40
2018-07-22T03:57:03.759Z,78.40
2018-07-22T03:59:32.976Z,78.60
2018-07-22T04:02:01.996Z,78.80
2018-07-22T04:04:31.201Z,78.60
2018-07-22T04:07:00.500Z,78.40
2018-07-22T04:09:29.558Z,78.80
2018-07-22T04:11:58.754Z,78.60
2018-07-22T04:14:27.827Z,78.40
2018-07-22T04:16:56.958Z,78.30
2018-07-22T04:19:25.987Z,78.40
2018-07-22T04:21:55.236Z,78.70
2018-07-22T04:24:24.310Z,78.70
2018-07-22T04:26:53.919Z,78.60
2018-07-22T04:29:22.934Z,78.90
2018-07-22T04:31:51.832Z,79.00
2018-07-22T04:34:20.752Z,78.90
2018-07-22T04:36:49.842Z,79.00
2018-07-22T04:39:18.794Z,78.80
2018-07-22T04:41:47.815Z,79.00
2018-07-22T04:44:16.901Z,78.70
2018-07-22T04:46:45.814Z,78.80
2018-07-22T04:49:14.686Z,78.70
2018-07-22T04:51:43.599Z,79.10
2018-07-22T04:54:12.741Z,78.80
2018-07-22T04:56:41.659Z,78.70
2018-07-22T04:59:10.718Z,78.60
2018-07-22T05:01:39.586Z,78.80
2018-07-22T05:04:09.315Z,78.60
2018-07-22T05:06:38.230Z,78.60
2018-07-22T05:09:10.074Z,78.80
2018-07-22T05:11:39.000Z,78.60
2018-07-22T05:14:07.883Z,78.40
2018-07-22T05:16:37.242Z,77.90
2018-07-22T05:19:06.935Z,77.70
2018-07-22T05:21:35.887Z,77.40
2018-07-22T05:24:05.034Z,77.40
2018-07-22T05:26:34.165Z,77.30
2018-07-22T05:29:03.026Z,77.30
2018-07-22T05:31:32.092Z,76.80
2018-07-22T05:34:01.075Z,76.50
2018-07-22T05:36:30.271Z,76.40
2018-07-22T05:38:59.345Z,76.50
2018-07-22T05:41:29.120Z,76.70
2018-07-22T05:43:58.211Z,76.50
2018-07-22T05:46:27.200Z,77.00
2018-07-22T05:48:56.046Z,76.10
2018-07-22T05:51:24.943Z,76.30
2018-07-22T05:53:54.260Z,76.30
2018-07-22T05:56:23.272Z,76.90
2018-07-22T05:58:52.163Z,76.60
2018-07-22T06:01:21.274Z,77.00
2018-07-22T06:03:50.424Z,77.10
2018-07-22T06:06:19.394Z,77.00
2018-07-22T06:08:48.274Z,77.00
2018-07-22T06:11:17.183Z,77.30
2018-07-22T06:13:46.199Z,77.30
2018-07-22T06:16:15.043Z,77.80
2018-07-22T06:18:43.964Z,77.80
2018-07-22T06:21:12.879Z,77.70
2018-07-22T06:23:41.888Z,78.20
2018-07-22T06:26:10.840Z,78.60
2018-07-22T06:28:39.739Z,78.10
2018-07-22T06:31:08.838Z,78.00
2018-07-22T06:33:37.754Z,78.20
2018-07-22T06:36:06.856Z,78.00
2018-07-22T06:38:35.919Z,77.90
2018-07-22T06:41:05.068Z,77.80
2018-07-22T06:43:34.230Z,77.60
2018-07-22T06:46:03.132Z,77.40
2018-07-22T06:48:32.131Z,77.30
2018-07-22T06:51:01.158Z,77.40
2018-07-22T06:53:30.126Z,77.30
2018-07-22T06:55:59.028Z,77.50
2018-07-22T06:58:27.924Z,77.80
2018-07-22T07:00:56.834Z,78.00
2018-07-22T07:03:25.869Z,77.80
2018-07-22T07:05:55.129Z,77.90
2018-07-22T07:08:23.996Z,78.30
2018-07-22T07:10:52.930Z,78.60
2018-07-22T07:13:22.041Z,78.80
2018-07-22T07:15:51.123Z,78.90
2018-07-22T07:18:20.052Z,79.10
2018-07-22T07:20:49.208Z,78.80
2018-07-22T07:23:18.978Z,79.00
2018-07-22T07:25:48.105Z,78.90
2018-07-22T07:28:16.889Z,79.00
2018-07-22T07:30:45.857Z,78.70
2018-07-22T07:33:14.743Z,79.10
2018-07-22T07:35:43.633Z,78.50
2018-07-22T07:38:12.533Z,78.80
2018-07-22T07:40:41.421Z,78.40
2018-07-22T07:43:10.323Z,78.70
2018-07-22T07:45:39.351Z,78.70
2018-07-22T07:48:08.793Z,78.60
2018-07-22T07:50:37.820Z,78.40
2018-07-22T07:53:06.917Z,78.20
2018-07-22T07:55:35.979Z,77.50
2018-07-22T07:58:04.973Z,78.00
2018-07-22T08:00:33.995Z,77.40
2018-07-22T08:03:02.868Z,77.20
2018-07-22T08:05:31.747Z,77.10
2018-07-22T08:08:00.907Z,77.10
2018-07-22T08:10:29.969Z,77.20
2018-07-22T08:12:59.251Z,75.80
2018-07-22T08:15:28.261Z,75.80
2018-07-22T08:17:57.523Z,76.00
2018-07-22T08:20:26.395Z,75.90
2018-07-22T08:22:55.438Z,76.20
2018-07-22T08:25:24.371Z,74.80
2018-07-22T08:27:53.264Z,75.30
2018-07-22T08:30:22.352Z,75.40
2018-07-22T08:32:51.236Z,74.50
2018-07-22T08:35:20.188Z,74.30
2018-07-22T08:37:49.084Z,73.80
2018-07-22T08:40:18.119Z,73.50
2018-07-22T08:42:47.203Z,73.90
2018-07-22T08:45:16.394Z,73.60
2018-07-22T08:47:45.518Z,72.40
2018-07-22T08:50:14.772Z,72.40
2018-07-22T08:52:43.776Z,72.50
2018-07-22T08:55:12.688Z,71.90
2018-07-22T08:57:41.682Z,71.30
2018-07-22T09:00:10.638Z,71.10
2018-07-22T09:02:39.493Z,70.30
2018-07-22T09:05:08.793Z,70.00
2018-07-22T09:07:37.828Z,70.70
2018-07-22T09:10:06.762Z,70.80
2018-07-22T09:12:35.644Z,69.30
2018-07-22T09:15:05.549Z,69.50
2018-07-22T09:17:35.150Z,69.70
2018-07-22T09:20:04.091Z,69.90
2018-07-22T09:22:32.981Z,69.20
2018-07-22T09:25:02.181Z,69.30
2018-07-22T09:27:31.201Z,68.50
2018-07-22T09:30:00.309Z,67.10
2018-07-22T09:32:29.242Z,66.50
2018-07-22T09:34:58.292Z,66.40
2018-07-22T09:37:27.139Z,66.70
2018-07-22T09:39:56.114Z,65.90
2018-07-22T09:42:25.364Z,64.60
2018-07-22T09:44:54.249Z,64.80
2018-07-22T09:47:23.224Z,64.50
2018-07-22T09:49:52.942Z,62.50
2018-07-22T09:52:21.825Z,62.60
2018-07-22T09:54:50.752Z,61.60
2018-07-22T09:57:19.821Z,60.10
2018-07-22T09:59:49.094Z,59.60
2018-07-22T10:02:18.102Z,59.90
2018-07-22T10:04:47.150Z,58.90
2018-07-22T10:07:16.013Z,59.00
2018-07-22T10:09:45.060Z,58.20
2018-07-22T10:12:13.923Z,58.20
2018-07-22T10:14:42.899Z,58.20
2018-07-22T10:17:11.969Z,57.50
2018-07-22T10:19:41.234Z,57.30
2018-07-22T10:22:10.133Z,56.90
2018-07-22T10:27:07.743Z,55.50
2018-07-22T10:29:36.814Z,55.10
2018-07-22T10:32:06.615Z,54.60
2018-07-22T10:34:35.618Z,53.60
2018-07-22T10:37:04.484Z,53.40
2018-07-22T10:39:33.374Z,52.80
2018-07-22T10:42:02.263Z,51.90
2018-07-22T10:44:31.379Z,52.10
2018-07-22T10:47:00.200Z,51.20
2018-07-22T10:49:29.190Z,50.90
2018-07-22T10:51:58.128Z,50.70
2018-07-22T10:54:27.149Z,50.50
2018-07-22T10:56:57.030Z,49.70
2018-07-22T10:59:26.413Z,48.90
2018-07-22T11:01:55.425Z,48.80
2018-07-22T11:04:24.308Z,48.60
2018-07-22T11:06:53.205Z,47.90
2018-07-22T11:09:22.045Z,47.30
2018-07-22T11:11:50.960Z,47.10
2018-07-22T11:14:19.934Z,46.60
2018-07-22T11:16:48.849Z,46.50
2018-07-22T11:19:17.741Z,46.20
2018-07-22T11:21:46.689Z,46.60
2018-07-22T11:24:15.747Z,46.00
2018-07-22T11:26:44.825Z,45.10
2018-07-22T11:29:13.909Z,44.50
2018-07-22T11:31:43.456Z,43.70
2018-07-22T11:34:12.734Z,43.20
2018-07-22T11:36:41.686Z,42.40
2018-07-22T11:39:11.748Z,42.50
2018-07-22T11:41:41.503Z,41.80
2018-07-22T11:44:10.872Z,41.80
2018-07-22T11:46:40.401Z,42.30
2018-07-22T11:49:09.740Z,41.20
2018-07-22T11:51:39.282Z,40.60
2018-07-22T11:54:08.841Z,39.90
2018-07-22T11:56:37.963Z,40.30
2018-07-22T11:59:07.308Z,39.70
2018-07-22T12:01:36.323Z,39.30
2018-07-22T12:04:05.414Z,38.20
2018-07-22T12:06:34.285Z,38.30
2018-07-22T12:09:03.268Z,38.60
2018-07-22T12:11:32.393Z,39.10
2018-07-22T12:14:01.421Z,38.80
2018-07-22T12:16:30.346Z,38.60
2018-07-22T12:18:59.354Z,37.30
2018-07-22T12:21:28.542Z,37.70
2018-07-22T12:23:58.263Z,37.60
2018-07-22T12:26:27.373Z,37.90
2018-07-22T12:28:56.511Z,38.10
2018-07-22T12:31:25.549Z,35.70
2018-07-22T12:33:54.628Z,34.80
2018-07-22T12:36:23.680Z,35.20
2018-07-22T12:38:52.526Z,37.00
2018-07-22T12:41:21.541Z,37.40
2018-07-22T12:43:54.306Z,36.10
2018-07-22T12:46:23.279Z,35.60
2018-07-22T12:48:52.693Z,34.70
2018-07-22T12:51:22.871Z,34.50
2018-07-22T12:53:52.297Z,32.40
2018-07-22T12:56:21.341Z,32.70
2018-07-22T12:58:50.286Z,33.10
2018-07-22T13:01:19.670Z,33.20
2018-07-22T13:03:49.537Z,31.70
2018-07-22T13:06:19.231Z,31.70
2018-07-22T13:08:48.280Z,31.50
2018-07-22T13:11:17.206Z,31.40
2018-07-22T13:13:46.265Z,31.50
2018-07-22T13:16:15.184Z,31.30
2018-07-22T13:18:44.040Z,30.70
2018-07-22T13:21:13.170Z,30.80
2018-07-22T13:23:42.268Z,30.30
2018-07-22T13:26:11.662Z,30.40
2018-07-22T13:28:40.596Z,30.50
2018-07-22T13:31:09.518Z,31.00
2018-07-22T13:33:38.674Z,30.50
2018-07-22T13:36:07.548Z,30.10
2018-07-22T13:38:36.662Z,30.40
2018-07-22T13:41:05.579Z,30.50
2018-07-22T13:43:34.473Z,31.40
2018-07-22T13:46:03.521Z,32.30
2018-07-22T13:48:32.649Z,32.60
2018-07-22T13:51:01.765Z,32.80
2018-07-22T13:53:30.706Z,32.30
2018-07-22T13:55:59.548Z,32.10
2018-07-22T13:58:28.568Z,32.20
2018-07-22T14:00:57.418Z,32.10
2018-07-22T14:03:26.316Z,32.80
2018-07-22T14:05:55.362Z,33.50
2018-07-22T14:08:24.386Z,33.70
2018-07-22T14:10:53.515Z,34.50
2018-07-22T14:13:22.672Z,34.70
2018-07-22T14:15:51.557Z,35.30
2018-07-22T14:18:20.648Z,35.60
2018-07-22T14:20:49.508Z,35.10
2018-07-22T14:23:18.352Z,34.30
2018-07-22T14:25:47.361Z,33.40
2018-07-22T14:28:16.218Z,32.40
2018-07-22T14:30:45.101Z,31.60
2018-07-22T14:33:14.160Z,31.30
2018-07-22T14:35:43.010Z,31.10
2018-07-22T14:38:11.946Z,30.60
2018-07-22T14:40:40.963Z,30.50
2018-07-22T14:43:09.894Z,31.70
2018-07-22T14:45:38.756Z,31.80
2018-07-22T14:48:07.779Z,31.60
2018-07-22T14:50:36.852Z,32.30
2018-07-22T14:53:06.228Z,33.00
2018-07-22T14:55:35.394Z,33.30
2018-07-22T14:58:04.307Z,32.60
2018-07-22T15:00:33.177Z,33.40
2018-07-22T15:03:02.193Z,34.60
2018-07-22T15:05:31.072Z,36.00
2018-07-22T15:08:00.165Z,36.60
2018-07-22T15:10:29.208Z,35.80
2018-07-22T15:12:58.091Z,34.90
2018-07-22T15:15:26.970Z,34.20
2018-07-22T15:17:56.784Z,33.20
2018-07-22T15:20:25.645Z,32.70
2018-07-22T15:22:54.736Z,31.00
2018-07-22T15:25:23.663Z,30.00
2018-07-22T15:27:52.619Z,29.40
2018-07-22T15:30:21.721Z,29.90
2018-07-22T15:32:50.753Z,30.40
2018-07-22T15:35:19.942Z,31.40
2018-07-22T15:37:48.828Z,31.90
2018-07-22T15:40:17.727Z,32.20
2018-07-22T15:42:46.834Z,32.60
2018-07-22T15:45:15.905Z,33.20
2018-07-22T15:47:44.989Z,33.70
2018-07-22T15:50:14.004Z,34.20
2018-07-22T15:52:43.047Z,33.20
2018-07-22T15:55:12.113Z,33.30
2018-07-22T15:57:40.961Z,34.10
2018-07-22T16:00:10.595Z,34.50
2018-07-22T16:02:39.790Z,35.20
2018-07-22T16:05:08.661Z,36.10
2018-07-22T16:07:37.882Z,36.30
2018-07-22T16:10:07.339Z,36.50
2018-07-22T16:12:36.369Z,35.10
2018-07-22T16:15:06.242Z,35.00
2018-07-22T16:17:35.728Z,35.60
2018-07-22T16:20:06.692Z,36.40
2018-07-22T16:22:36.205Z,37.30
2018-07-22T16:25:05.694Z,38.40
2018-07-22T16:27:34.661Z,39.00
2018-07-22T16:30:03.859Z,39.30
2018-07-22T16:32:32.915Z,39.60
2018-07-22T16:35:02.635Z,39.60
2018-07-22T16:37:31.445Z,40.60
2018-07-22T16:40:00.333Z,40.90
2018-07-22T16:42:29.410Z,41.10
2018-07-22T16:44:58.405Z,41.50
2018-07-22T16:47:27.370Z,41.80
2018-07-22T16:49:56.223Z,42.70
2018-07-22T16:52:25.170Z,42.80
2018-07-22T16:54:54.313Z,43.50
2018-07-22T16:57:23.213Z,43.50
2018-07-22T16:59:52.178Z,43.70
2018-07-22T17:02:21.031Z,44.00
2018-07-22T17:04:50.807Z,44.50
2018-07-22T17:07:19.853Z,45.10
2018-07-22T17:09:48.876Z,46.10
2018-07-22T17:12:17.715Z,46.90
2018-07-22T17:14:46.626Z,47.60
2018-07-22T17:17:15.727Z,48.00
2018-07-22T17:19:44.838Z,48.30
2018-07-22T17:22:14.028Z,48.60
2018-07-22T17:24:42.898Z,49.40
2018-07-22T17:27:11.751Z,49.90
2018-07-22T17:29:40.625Z,49.70
2018-07-22T17:32:09.947Z,49.80
2018-07-22T17:34:39.095Z,48.70
2018-07-22T17:37:08.051Z,48.80
2018-07-22T17:39:36.944Z,49.20
2018-07-22T17:42:05.866Z,50.40
2018-07-22T17:44:35.331Z,49.60
2018-07-22T17:47:04.312Z,49.60
2018-07-22T17:49:33.178Z,49.80
2018-07-22T17:52:02.164Z,49.70
2018-07-22T17:54:31.115Z,49.70
2018-07-22T17:56:59.959Z,49.90
2018-07-22T17:59:28.913Z,50.20
2018-07-22T18:01:57.963Z,50.40
2018-07-22T18:04:26.863Z,50.70
2018-07-22T18:07:02.322Z,50.70
2018-07-22T18:09:31.228Z,50.70
2018-07-22T18:12:00.328Z,50.90
2018-07-22T18:14:29.489Z,51.10
2018-07-22T18:16:58.638Z,51.10
2018-07-22T18:19:27.652Z,51.50
2018-07-22T18:24:25.198Z,51.80
2018-07-22T18:26:54.039Z,51.80
2018-07-22T18:29:22.876Z,51.70
2018-07-22T18:31:51.957Z,52.10
2018-07-22T18:34:21.158Z,51.70
2018-07-22T18:36:50.149Z,51.50
2018-07-22T18:39:19.339Z,51.50
2018-07-22T18:41:48.305Z,51.50
2018-07-22T18:44:17.300Z,51.90
2018-07-22T18:46:46.188Z,51.60
2018-07-22T18:49:15.057Z,51.80
2018-07-22T18:51:44.197Z,52.10
2018-07-22T18:54:13.263Z,52.20
2018-07-22T18:56:42.193Z,52.10
2018-07-22T18:59:11.044Z,52.30
2018-07-22T19:01:39.934Z,52.50
2018-07-22T19:04:08.813Z,52.50
2018-07-22T19:06:37.704Z,52.40
2018-07-22T19:09:08.926Z,52.80
2018-07-22T19:11:37.742Z,52.80
2018-07-22T19:14:06.673Z,53.00
2018-07-22T19:16:35.513Z,53.30
2018-07-22T19:19:04.425Z,53.70
2018-07-22T19:21:33.322Z,54.80
2018-07-22T19:24:02.200Z,54.80
2018-07-22T19:26:31.088Z,55.20
2018-07-22T19:28:59.968Z,55.50
2018-07-22T19:31:28.898Z,56.20
2018-07-22T19:33:57.863Z,56.10
2018-07-22T19:36:26.770Z,56.20
2018-07-22T19:38:55.733Z,56.70
2018-07-22T19:41:24.624Z,56.70
2018-07-22T19:43:53.478Z,57.30
2018-07-22T19:46:22.458Z,56.80
2018-07-22T19:48:51.508Z,57.30
2018-07-22T19:51:20.398Z,58.00
2018-07-22T19:53:49.264Z,57.70
2018-07-22T19:56:18.213Z,58.40
2018-07-22T19:58:47.065Z,58.40
2018-07-22T20:01:16.275Z,59.30
2018-07-22T20:03:45.104Z,59.20
2018-07-22T20:06:14.039Z,59.60
2018-07-22T20:08:43.086Z,59.80
2018-07-22T20:11:12.002Z,59.80
2018-07-22T20:13:40.912Z,59.80
2018-07-22T20:16:09.780Z,59.80
2018-07-22T20:18:38.835Z,60.10
2018-07-22T20:21:07.670Z,60.10
2018-07-22T20:23:36.509Z,61.30
2018-07-22T20:26:05.827Z,62.00
2018-07-22T20:28:34.655Z,62.10
2018-07-22T20:31:03.553Z,62.30
2018-07-22T20:33:32.571Z,61.60
2018-07-22T20:36:01.484Z,61.80
2018-07-22T20:43:27.567Z,62.90
2018-07-22T20:45:56.575Z,63.20
2018-07-22T20:48:25.535Z,63.30
2018-07-22T20:50:54.579Z,63.50
2018-07-22T20:53:24.379Z,64.70
2018-07-22T20:55:53.389Z,65.00
2018-07-22T20:58:22.256Z,65.50
2018-07-22T21:00:51.429Z,65.80
2018-07-22T21:03:20.297Z,66.40
2018-07-22T21:05:49.368Z,67.10
2018-07-22T21:08:18.264Z,67.20
2018-07-22T21:10:47.127Z,67.30
2018-07-22T21:13:20.316Z,67.80
2018-07-22T21:15:49.528Z,68.00
2018-07-22T21:18:18.445Z,68.00
2018-07-22T21:20:47.294Z,68.10
2018-07-22T21:23:16.339Z,68.20
2018-07-22T21:25:45.194Z,68.30
2018-07-22T21:28:14.099Z,68.90
2018-07-22T21:30:42.959Z,69.10
2018-07-22T21:33:11.795Z,69.60
2018-07-22T21:35:40.649Z,70.30
2018-07-22T21:38:09.541Z,70.40
2018-07-22T21:40:38.444Z,72.30
2018-07-22T21:43:07.348Z,73.40
2018-07-22T21:45:36.196Z,73.30
2018-07-22T21:48:05.215Z,73.30
2018-07-22T21:50:34.327Z,73.50
2018-07-22T21:53:03.252Z,71.70
2018-07-22T21:55:32.282Z,70.70
2018-07-22T21:58:01.172Z,70.90
2018-07-22T22:00:35.186Z,71.10
2018-07-22T22:03:05.141Z,71.40
2018-07-22T22:05:34.176Z,71.50
2018-07-22T22:08:03.064Z,71.50
2018-07-22T22:10:31.962Z,71.60
2018-07-22T22:13:01.120Z,71.80
2018-07-22T22:15:32.018Z,73.00
2018-07-22T22:18:03.211Z,73.80
2018-07-22T22:20:32.427Z,74.40
2018-07-22T22:23:01.339Z,74.70
2018-07-22T22:25:30.173Z,75.10
2018-07-22T22:27:59.128Z,75.30
2018-07-22T22:30:27.995Z,75.60
2018-07-22T22:32:57.124Z,75.70
2018-07-22T22:35:26.199Z,76.80
2018-07-22T22:37:55.324Z,77.50
2018-07-22T22:40:24.369Z,77.80
2018-07-22T22:42:53.253Z,78.00
2018-07-22T22:45:22.196Z,78.00
2018-07-22T22:47:51.313Z,76.80
2018-07-22T22:50:20.153Z,77.30
2018-07-22T22:52:49.024Z,77.40
2018-07-22T22:55:17.941Z,77.60
2018-07-22T22:57:57.865Z,77.80
2018-07-22T23:00:26.745Z,77.60
2018-07-22T23:02:55.923Z,77.90
2018-07-22T23:05:24.976Z,78.20
2018-07-22T23:07:53.853Z,78.40
2018-07-22T23:10:22.744Z,78.30
2018-07-22T23:12:51.612Z,78.50
2018-07-22T23:15:20.468Z,79.00
2018-07-22T23:17:49.543Z,79.50
2018-07-22T23:20:18.384Z,79.40
2018-07-22T23:22:47.251Z,79.60
2018-07-22T23:27:44.770Z,80.70
2018-07-22T23:30:13.680Z,80.70
2018-07-22T23:32:42.522Z,80.90
2018-07-22T23:35:11.332Z,81.50
2018-07-22T23:37:40.329Z,81.80
2018-07-22T23:40:09.249Z,82.30
2018-07-22T23:42:38.094Z,82.50
2018-07-22T23:45:07.014Z,82.60
2018-07-22T23:47:35.898Z,82.50
2018-07-22T23:50:05.236Z,82.60
2018-07-22T23:52:33.975Z,82.70
2018-07-22T23:55:02.775Z,83.20
2018-07-22T23:57:31.638Z,83.10
